sensor_id;sensor_type;location;lat;lon;timestamp;pressure;altitude;pressure_sealevel;temperature;humidity
26376;BME280;30544;42.196;24.336;2023-03-14T00:02:22;99637.00;;;3.26;63.05
26376;BME280;30544;42.196;24.336;2023-03-14T00:04:49;99635.88;;;3.20;62.81
26376;BME280;30544;42.196;24.336;2023-03-14T00:07:16;99626.31;;;3.31;62.29
26376;BME280;30544;42.196;24.336;2023-03-14T00:09:42;99620.91;;;3.38;62.52
26376;BME280;30544;42.196;24.336;2023-03-14T00:12:10;99621.50;;;3.18;62.79
26376;BME280;30544;42.196;24.336;2023-03-14T00:14:39;99623.69;;;3.08;63.51
26376;BME280;30544;42.196;24.336;2023-03-14T00:17:07;99611.03;;;3.07;64.69
26376;BME280;30544;42.196;24.336;2023-03-14T00:19:34;99613.13;;;3.05;64.18
26376;BME280;30544;42.196;24.336;2023-03-14T00:22:01;99601.28;;;3.19;64.61
26376;BME280;30544;42.196;24.336;2023-03-14T00:24:28;99605.94;;;3.04;64.88
26376;BME280;30544;42.196;24.336;2023-03-14T00:26:54;99606.13;;;3.03;65.89
26376;BME280;30544;42.196;24.336;2023-03-14T00:29:22;99600.66;;;3.03;65.88
26376;BME280;30544;42.196;24.336;2023-03-14T00:31:49;99587.28;;;2.99;66.04
26376;BME280;30544;42.196;24.336;2023-03-14T00:34:16;99578.59;;;2.96;66.78
26376;BME280;30544;42.196;24.336;2023-03-14T00:36:44;99574.94;;;2.89;66.25
26376;BME280;30544;42.196;24.336;2023-03-14T00:39:11;99569.94;;;2.92;66.86
26376;BME280;30544;42.196;24.336;2023-03-14T00:41:37;99576.34;;;2.85;66.78
26376;BME280;30544;42.196;24.336;2023-03-14T00:44:04;99562.75;;;2.77;67.58
26376;BME280;30544;42.196;24.336;2023-03-14T00:46:33;99555.31;;;2.70;67.52
26376;BME280;30544;42.196;24.336;2023-03-14T00:49:00;99550.34;;;2.51;67.73
26376;BME280;30544;42.196;24.336;2023-03-14T00:51:26;99552.25;;;2.51;67.54
26376;BME280;30544;42.196;24.336;2023-03-14T00:53:54;99546.69;;;2.44;68.45
26376;BME280;30544;42.196;24.336;2023-03-14T00:56:20;99543.47;;;2.26;69.58
26376;BME280;30544;42.196;24.336;2023-03-14T00:58:47;99539.75;;;2.04;70.56
26376;BME280;30544;42.196;24.336;2023-03-14T01:01:16;99536.91;;;2.12;69.68
26376;BME280;30544;42.196;24.336;2023-03-14T01:03:44;99547.09;;;2.03;70.65
26376;BME280;30544;42.196;24.336;2023-03-14T01:06:14;99536.59;;;1.92;71.15
26376;BME280;30544;42.196;24.336;2023-03-14T01:08:41;99543.72;;;2.16;70.15
26376;BME280;30544;42.196;24.336;2023-03-14T01:11:10;99542.28;;;2.05;70.63
26376;BME280;30544;42.196;24.336;2023-03-14T01:13:37;99541.91;;;2.08;71.01
26376;BME280;30544;42.196;24.336;2023-03-14T01:16:06;99534.47;;;2.02;70.79
26376;BME280;30544;42.196;24.336;2023-03-14T01:18:34;99530.19;;;1.85;70.81
26376;BME280;30544;42.196;24.336;2023-03-14T01:21:03;99524.75;;;1.77;70.25
26376;BME280;30544;42.196;24.336;2023-03-14T01:23:30;99525.59;;;1.77;70.36
26376;BME280;30544;42.196;24.336;2023-03-14T01:25:57;99521.41;;;1.90;70.45
26376;BME280;30544;42.196;24.336;2023-03-14T01:28:24;99522.41;;;1.74;70.34
26376;BME280;30544;42.196;24.336;2023-03-14T01:30:51;99525.78;;;1.76;69.10
26376;BME280;30544;42.196;24.336;2023-03-14T01:33:17;99531.56;;;1.81;69.67
26376;BME280;30544;42.196;24.336;2023-03-14T01:35:44;99534.66;;;1.78;69.04
26376;BME280;30544;42.196;24.336;2023-03-14T01:38:12;99530.59;;;1.74;70.61
26376;BME280;30544;42.196;24.336;2023-03-14T01:40:43;99534.06;;;1.68;70.23
26376;BME280;30544;42.196;24.336;2023-03-14T01:43:15;99518.19;;;1.63;70.47
26376;BME280;30544;42.196;24.336;2023-03-14T01:48:50;99519.84;;;1.49;68.87
26376;BME280;30544;42.196;24.336;2023-03-14T01:51:20;99507.72;;;1.67;68.22
26376;BME280;30544;42.196;24.336;2023-03-14T01:53:50;99512.78;;;1.78;69.59
26376;BME280;30544;42.196;24.336;2023-03-14T01:56:19;99502.78;;;1.70;67.78
26376;BME280;30544;42.196;24.336;2023-03-14T01:58:48;99510.91;;;1.78;67.98
26376;BME280;30544;42.196;24.336;2023-03-14T02:01:19;99501.47;;;1.81;68.20
26376;BME280;30544;42.196;24.336;2023-03-14T02:03:51;99506.09;;;1.80;68.11
26376;BME280;30544;42.196;24.336;2023-03-14T02:06:21;99502.63;;;1.87;68.39
26376;BME280;30544;42.196;24.336;2023-03-14T02:08:51;99497.50;;;1.84;68.86
26376;BME280;30544;42.196;24.336;2023-03-14T02:11:18;99490.66;;;1.88;68.28
26376;BME280;30544;42.196;24.336;2023-03-14T02:13:45;99485.66;;;1.91;67.80
26376;BME280;30544;42.196;24.336;2023-03-14T02:16:12;99490.47;;;1.89;68.42
26376;BME280;30544;42.196;24.336;2023-03-14T02:18:39;99496.13;;;1.88;68.50
26376;BME280;30544;42.196;24.336;2023-03-14T02:21:13;99498.34;;;1.84;69.53
26376;BME280;30544;42.196;24.336;2023-03-14T02:23:48;99495.41;;;1.71;70.63
26376;BME280;30544;42.196;24.336;2023-03-14T02:26:22;99498.81;;;1.50;69.92
26376;BME280;30544;42.196;24.336;2023-03-14T02:28:53;99500.38;;;1.53;69.71
26376;BME280;30544;42.196;24.336;2023-03-14T02:31:20;99502.78;;;1.47;70.49
26376;BME280;30544;42.196;24.336;2023-03-14T02:33:49;99515.06;;;1.52;70.23
26376;BME280;30544;42.196;24.336;2023-03-14T02:36:19;99502.47;;;1.42;70.69
26376;BME280;30544;42.196;24.336;2023-03-14T02:38:50;99507.41;;;1.24;70.46
26376;BME280;30544;42.196;24.336;2023-03-14T02:41:18;99506.56;;;1.15;70.32
26376;BME280;30544;42.196;24.336;2023-03-14T02:43:45;99510.16;;;1.16;70.77
26376;BME280;30544;42.196;24.336;2023-03-14T02:46:14;99509.13;;;1.17;70.68
26376;BME280;30544;42.196;24.336;2023-03-14T02:48:45;99512.97;;;1.08;71.03
26376;BME280;30544;42.196;24.336;2023-03-14T02:51:13;99511.94;;;1.09;71.51
26376;BME280;30544;42.196;24.336;2023-03-14T02:53:41;99498.06;;;0.87;70.94
26376;BME280;30544;42.196;24.336;2023-03-14T02:56:09;99500.28;;;0.84;70.87
26376;BME280;30544;42.196;24.336;2023-03-14T02:58:36;99498.25;;;0.78;70.87
26376;BME280;30544;42.196;24.336;2023-03-14T03:01:03;99492.44;;;0.81;71.08
26376;BME280;30544;42.196;24.336;2023-03-14T03:03:31;99494.22;;;0.97;71.55
26376;BME280;30544;42.196;24.336;2023-03-14T03:05:58;99501.47;;;0.89;70.46
26376;BME280;30544;42.196;24.336;2023-03-14T03:08:26;99498.94;;;0.80;69.80
26376;BME280;30544;42.196;24.336;2023-03-14T03:10:53;99501.16;;;0.84;69.58
26376;BME280;30544;42.196;24.336;2023-03-14T03:13:21;99501.41;;;0.98;69.16
26376;BME280;30544;42.196;24.336;2023-03-14T03:15:47;99496.69;;;0.83;70.01
26376;BME280;30544;42.196;24.336;2023-03-14T03:18:15;99497.97;;;1.04;69.35
26376;BME280;30544;42.196;24.336;2023-03-14T03:20:43;99496.50;;;1.16;69.53
26376;BME280;30544;42.196;24.336;2023-03-14T03:23:11;99500.03;;;1.02;69.16
26376;BME280;30544;42.196;24.336;2023-03-14T03:25:38;99496.97;;;0.97;68.67
26376;BME280;30544;42.196;24.336;2023-03-14T03:28:05;99500.25;;;0.92;68.81
26376;BME280;30544;42.196;24.336;2023-03-14T03:30:36;99491.38;;;0.90;68.78
26376;BME280;30544;42.196;24.336;2023-03-14T03:33:03;99487.03;;;1.04;68.36
26376;BME280;30544;42.196;24.336;2023-03-14T03:35:30;99485.81;;;1.06;67.85
26376;BME280;30544;42.196;24.336;2023-03-14T03:37:58;99475.19;;;1.11;67.76
26376;BME280;30544;42.196;24.336;2023-03-14T03:40:25;99477.06;;;1.11;67.67
26376;BME280;30544;42.196;24.336;2023-03-14T03:42:52;99469.91;;;1.10;67.39
26376;BME280;30544;42.196;24.336;2023-03-14T03:45:18;99472.28;;;1.13;67.68
26376;BME280;30544;42.196;24.336;2023-03-14T03:47:45;99474.81;;;1.14;67.84
26376;BME280;30544;42.196;24.336;2023-03-14T03:50:12;99470.88;;;1.17;67.38
26376;BME280;30544;42.196;24.336;2023-03-14T03:52:38;99467.47;;;1.15;67.11
26376;BME280;30544;42.196;24.336;2023-03-14T03:55:07;99469.50;;;1.21;67.55
26376;BME280;30544;42.196;24.336;2023-03-14T03:57:34;99466.63;;;1.14;67.46
26376;BME280;30544;42.196;24.336;2023-03-14T04:00:02;99472.47;;;1.11;67.95
26376;BME280;30544;42.196;24.336;2023-03-14T04:02:30;99475.09;;;0.97;68.56
26376;BME280;30544;42.196;24.336;2023-03-14T04:04:57;99480.53;;;1.05;68.60
26376;BME280;30544;42.196;24.336;2023-03-14T04:07:23;99476.09;;;1.04;68.52
26376;BME280;30544;42.196;24.336;2023-03-14T04:09:51;99476.81;;;0.98;68.94
26376;BME280;30544;42.196;24.336;2023-03-14T04:12:19;99475.34;;;0.87;68.28
26376;BME280;30544;42.196;24.336;2023-03-14T04:14:45;99478.75;;;0.89;67.83
26376;BME280;30544;42.196;24.336;2023-03-14T04:17:12;99475.19;;;0.80;67.83
26376;BME280;30544;42.196;24.336;2023-03-14T04:19:39;99469.25;;;0.77;68.83
26376;BME280;30544;42.196;24.336;2023-03-14T04:22:07;99471.81;;;0.78;68.24
26376;BME280;30544;42.196;24.336;2023-03-14T04:24:34;99464.00;;;0.67;68.16
26376;BME280;30544;42.196;24.336;2023-03-14T04:27:01;99467.75;;;0.66;68.37
26376;BME280;30544;42.196;24.336;2023-03-14T04:29:29;99457.47;;;0.76;67.82
26376;BME280;30544;42.196;24.336;2023-03-14T04:31:55;99460.22;;;0.76;68.16
26376;BME280;30544;42.196;24.336;2023-03-14T04:34:22;99467.69;;;0.51;68.71
26376;BME280;30544;42.196;24.336;2023-03-14T04:36:49;99467.41;;;0.30;69.30
26376;BME280;30544;42.196;24.336;2023-03-14T04:39:16;99473.72;;;0.39;69.21
26376;BME280;30544;42.196;24.336;2023-03-14T04:41:44;99468.69;;;0.50;69.69
26376;BME280;30544;42.196;24.336;2023-03-14T04:44:10;99471.53;;;0.65;68.44
26376;BME280;30544;42.196;24.336;2023-03-14T04:46:39;99477.16;;;0.64;68.46
26376;BME280;30544;42.196;24.336;2023-03-14T04:49:05;99479.59;;;0.58;68.28
26376;BME280;30544;42.196;24.336;2023-03-14T04:51:32;99482.44;;;0.65;68.22
26376;BME280;30544;42.196;24.336;2023-03-14T04:53:59;99478.53;;;0.68;68.45
26376;BME280;30544;42.196;24.336;2023-03-14T04:56:26;99485.16;;;0.73;68.50
26376;BME280;30544;42.196;24.336;2023-03-14T04:58:53;99483.00;;;0.92;69.30
26376;BME280;30544;42.196;24.336;2023-03-14T05:01:20;99487.16;;;0.79;68.38
26376;BME280;30544;42.196;24.336;2023-03-14T05:03:48;99486.22;;;0.95;67.94
26376;BME280;30544;42.196;24.336;2023-03-14T05:06:14;99491.88;;;0.94;67.36
26376;BME280;30544;42.196;24.336;2023-03-14T05:08:41;99483.91;;;1.38;66.48
26376;BME280;30544;42.196;24.336;2023-03-14T05:11:10;99489.72;;;1.35;65.75
26376;BME280;30544;42.196;24.336;2023-03-14T05:13:37;99497.19;;;1.18;66.94
26376;BME280;30544;42.196;24.336;2023-03-14T05:16:05;99489.47;;;1.44;66.43
26376;BME280;30544;42.196;24.336;2023-03-14T05:18:32;99490.06;;;1.32;66.13
26376;BME280;30544;42.196;24.336;2023-03-14T05:21:00;99498.53;;;1.45;65.73
26376;BME280;30544;42.196;24.336;2023-03-14T05:23:27;99498.59;;;1.60;65.82
26376;BME280;30544;42.196;24.336;2023-03-14T05:25:54;99496.66;;;1.68;65.58
26376;BME280;30544;42.196;24.336;2023-03-14T05:28:20;99508.28;;;1.85;65.48
26376;BME280;30544;42.196;24.336;2023-03-14T05:30:47;99494.25;;;2.03;64.27
26376;BME280;30544;42.196;24.336;2023-03-14T05:33:14;99502.91;;;1.92;64.86
26376;BME280;30544;42.196;24.336;2023-03-14T05:35:42;99499.53;;;1.67;65.37
26376;BME280;30544;42.196;24.336;2023-03-14T05:38:10;99491.09;;;1.76;65.56
26376;BME280;30544;42.196;24.336;2023-03-14T05:40:37;99491.16;;;2.06;65.11
26376;BME280;30544;42.196;24.336;2023-03-14T05:43:03;99493.72;;;2.22;62.64
26376;BME280;30544;42.196;24.336;2023-03-14T05:45:33;99487.56;;;2.35;62.07
26376;BME280;30544;42.196;24.336;2023-03-14T05:48:00;99485.41;;;2.60;63.13
26376;BME280;30544;42.196;24.336;2023-03-14T05:50:26;99472.28;;;2.55;62.48
26376;BME280;30544;42.196;24.336;2023-03-14T05:52:53;99479.06;;;2.59;60.74
26376;BME280;30544;42.196;24.336;2023-03-14T05:55:21;99482.53;;;2.68;61.25
26376;BME280;30544;42.196;24.336;2023-03-14T05:57:48;99474.38;;;3.04;60.56
26376;BME280;30544;42.196;24.336;2023-03-14T06:00:15;99474.88;;;2.93;61.42
26376;BME280;30544;42.196;24.336;2023-03-14T06:02:42;99475.03;;;3.06;60.94
26376;BME280;30544;42.196;24.336;2023-03-14T06:05:09;99470.06;;;3.16;61.00
26376;BME280;30544;42.196;24.336;2023-03-14T06:07:36;99474.19;;;3.27;58.93
26376;BME280;30544;42.196;24.336;2023-03-14T06:10:04;99482.22;;;3.50;59.41
26376;BME280;30544;42.196;24.336;2023-03-14T06:12:32;99472.69;;;3.24;59.33
26376;BME280;30544;42.196;24.336;2023-03-14T06:14:59;99477.72;;;3.21;59.29
26376;BME280;30544;42.196;24.336;2023-03-14T06:17:45;99473.59;;;3.31;60.17
26376;BME280;30544;42.196;24.336;2023-03-14T06:20:12;99478.63;;;3.28;59.78
26376;BME280;30544;42.196;24.336;2023-03-14T06:22:39;99473.44;;;3.54;58.59
26376;BME280;30544;42.196;24.336;2023-03-14T06:25:08;99476.28;;;3.46;58.00
26376;BME280;30544;42.196;24.336;2023-03-14T06:27:36;99471.03;;;3.94;58.12
26376;BME280;30544;42.196;24.336;2023-03-14T06:30:03;99472.28;;;3.91;57.02
26376;BME280;30544;42.196;24.336;2023-03-14T06:32:30;99469.13;;;4.22;55.80
26376;BME280;30544;42.196;24.336;2023-03-14T06:34:57;99459.97;;;4.15;56.04
26376;BME280;30544;42.196;24.336;2023-03-14T06:37:26;99465.19;;;4.04;55.48
26376;BME280;30544;42.196;24.336;2023-03-14T06:39:53;99469.47;;;4.13;55.19
26376;BME280;30544;42.196;24.336;2023-03-14T06:42:20;99461.38;;;4.33;55.34
26376;BME280;30544;42.196;24.336;2023-03-14T06:44:48;99461.09;;;4.21;55.70
26376;BME280;30544;42.196;24.336;2023-03-14T06:47:15;99457.34;;;4.29;55.05
26376;BME280;30544;42.196;24.336;2023-03-14T06:49:41;99454.47;;;4.43;55.86
26376;BME280;30544;42.196;24.336;2023-03-14T06:52:08;99444.66;;;4.69;54.71
26376;BME280;30544;42.196;24.336;2023-03-14T06:54:35;99445.19;;;4.92;54.19
26376;BME280;30544;42.196;24.336;2023-03-14T06:57:02;99447.94;;;4.51;54.57
26376;BME280;30544;42.196;24.336;2023-03-14T06:59:29;99446.13;;;5.26;53.18
26376;BME280;30544;42.196;24.336;2023-03-14T07:01:57;99441.59;;;4.50;54.67
26376;BME280;30544;42.196;24.336;2023-03-14T07:04:23;99437.91;;;5.52;54.11
26376;BME280;30544;42.196;24.336;2023-03-14T07:06:50;99438.31;;;5.36;52.98
26376;BME280;30544;42.196;24.336;2023-03-14T07:09:17;99449.16;;;5.70;52.57
26376;BME280;30544;42.196;24.336;2023-03-14T07:11:44;99444.47;;;5.71;52.83
26376;BME280;30544;42.196;24.336;2023-03-14T07:14:11;99444.88;;;5.22;53.57
26376;BME280;30544;42.196;24.336;2023-03-14T07:16:38;99439.00;;;5.84;53.49
26376;BME280;30544;42.196;24.336;2023-03-14T07:19:06;99434.78;;;5.75;53.59
26376;BME280;30544;42.196;24.336;2023-03-14T07:21:32;99427.16;;;5.97;52.74
26376;BME280;30544;42.196;24.336;2023-03-14T07:24:00;99429.84;;;6.37;52.49
26376;BME280;30544;42.196;24.336;2023-03-14T07:26:27;99431.59;;;6.11;52.94
26376;BME280;30544;42.196;24.336;2023-03-14T07:28:53;99440.13;;;6.74;51.93
26376;BME280;30544;42.196;24.336;2023-03-14T07:31:20;99434.53;;;6.29;53.22
26376;BME280;30544;42.196;24.336;2023-03-14T07:33:47;99428.16;;;6.36;53.04
26376;BME280;30544;42.196;24.336;2023-03-14T07:36:15;99431.56;;;6.18;52.64
26376;BME280;30544;42.196;24.336;2023-03-14T07:38:42;99429.69;;;6.89;52.30
26376;BME280;30544;42.196;24.336;2023-03-14T07:41:09;99426.97;;;6.76;52.24
26376;BME280;30544;42.196;24.336;2023-03-14T07:43:36;99412.38;;;7.45;51.13
26376;BME280;30544;42.196;24.336;2023-03-14T07:46:02;99405.97;;;8.01;49.85
26376;BME280;30544;42.196;24.336;2023-03-14T07:48:29;99413.25;;;7.08;51.52
26376;BME280;30544;42.196;24.336;2023-03-14T07:50:56;99408.25;;;6.91;51.49
26376;BME280;30544;42.196;24.336;2023-03-14T07:53:25;99393.88;;;7.77;50.30
26376;BME280;30544;42.196;24.336;2023-03-14T07:55:52;99395.81;;;7.14;52.37
26376;BME280;30544;42.196;24.336;2023-03-14T07:58:19;99395.22;;;7.37;51.10
26376;BME280;30544;42.196;24.336;2023-03-14T08:00:47;99392.16;;;7.51;51.11
26376;BME280;30544;42.196;24.336;2023-03-14T08:03:14;99388.84;;;7.68;50.50
26376;BME280;30544;42.196;24.336;2023-03-14T08:05:40;99388.22;;;7.66;50.48
26376;BME280;30544;42.196;24.336;2023-03-14T08:08:07;99379.34;;;8.68;48.47
26376;BME280;30544;42.196;24.336;2023-03-14T08:10:35;99381.72;;;8.65;49.35
26376;BME280;30544;42.196;24.336;2023-03-14T08:13:02;99376.97;;;8.54;48.18
26376;BME280;30544;42.196;24.336;2023-03-14T08:15:30;99383.56;;;8.71;46.78
26376;BME280;30544;42.196;24.336;2023-03-14T08:17:57;99384.66;;;8.52;46.86
26376;BME280;30544;42.196;24.336;2023-03-14T08:20:26;99380.84;;;7.84;48.53
26376;BME280;30544;42.196;24.336;2023-03-14T08:22:55;99378.13;;;8.46;48.16
26376;BME280;30544;42.196;24.336;2023-03-14T08:25:22;99380.63;;;8.84;47.41
26376;BME280;30544;42.196;24.336;2023-03-14T08:27:50;99372.81;;;9.11;47.33
26376;BME280;30544;42.196;24.336;2023-03-14T08:30:18;99369.41;;;9.39;45.80
26376;BME280;30544;42.196;24.336;2023-03-14T08:32:45;99360.44;;;9.67;45.59
26376;BME280;30544;42.196;24.336;2023-03-14T08:35:13;99363.03;;;8.97;45.88
26376;BME280;30544;42.196;24.336;2023-03-14T08:37:40;99350.69;;;9.11;44.62
26376;BME280;30544;42.196;24.336;2023-03-14T08:40:08;99357.81;;;8.70;45.14
26376;BME280;30544;42.196;24.336;2023-03-14T08:42:35;99344.56;;;9.09;44.71
26376;BME280;30544;42.196;24.336;2023-03-14T08:45:05;99343.69;;;9.50;44.23
26376;BME280;30544;42.196;24.336;2023-03-14T08:47:32;99337.50;;;8.95;43.95
26376;BME280;30544;42.196;24.336;2023-03-14T08:49:59;99333.31;;;8.92;43.34
26376;BME280;30544;42.196;24.336;2023-03-14T08:52:26;99324.63;;;9.30;42.32
26376;BME280;30544;42.196;24.336;2023-03-14T08:54:52;99318.66;;;9.45;42.71
26376;BME280;30544;42.196;24.336;2023-03-14T08:57:19;99314.59;;;9.94;42.34
26376;BME280;30544;42.196;24.336;2023-03-14T08:59:47;99307.81;;;8.90;44.30
26376;BME280;30544;42.196;24.336;2023-03-14T09:02:15;99303.50;;;9.94;43.43
26376;BME280;30544;42.196;24.336;2023-03-14T09:04:42;99307.09;;;9.72;42.99
26376;BME280;30544;42.196;24.336;2023-03-14T09:07:08;99311.34;;;9.74;42.99
26376;BME280;30544;42.196;24.336;2023-03-14T09:09:35;99293.88;;;9.85;42.74
26376;BME280;30544;42.196;24.336;2023-03-14T09:12:02;99293.34;;;10.35;42.57
26376;BME280;30544;42.196;24.336;2023-03-14T09:14:30;99285.06;;;10.00;42.67
26376;BME280;30544;42.196;24.336;2023-03-14T09:16:57;99290.75;;;9.58;43.40
26376;BME280;30544;42.196;24.336;2023-03-14T09:19:25;99295.94;;;9.78;44.73
26376;BME280;30544;42.196;24.336;2023-03-14T09:21:52;99288.69;;;10.12;42.69
26376;BME280;30544;42.196;24.336;2023-03-14T09:24:19;99283.25;;;10.06;42.95
26376;BME280;30544;42.196;24.336;2023-03-14T09:26:45;99278.16;;;10.38;40.15
26376;BME280;30544;42.196;24.336;2023-03-14T09:29:12;99272.34;;;10.79;40.46
26376;BME280;30544;42.196;24.336;2023-03-14T09:31:39;99268.56;;;10.57;41.17
26376;BME280;30544;42.196;24.336;2023-03-14T09:34:06;99270.22;;;10.70;40.41
26376;BME280;30544;42.196;24.336;2023-03-14T09:36:34;99261.72;;;10.60;40.92
26376;BME280;30544;42.196;24.336;2023-03-14T09:39:03;99266.34;;;10.71;41.81
26376;BME280;30544;42.196;24.336;2023-03-14T09:41:33;99259.63;;;10.67;41.68
26376;BME280;30544;42.196;24.336;2023-03-14T09:44:04;99251.53;;;10.65;40.11
26376;BME280;30544;42.196;24.336;2023-03-14T09:46:33;99247.22;;;10.86;40.79
26376;BME280;30544;42.196;24.336;2023-03-14T09:49:08;99243.84;;;11.12;40.00
26376;BME280;30544;42.196;24.336;2023-03-14T09:51:37;99244.59;;;10.51;39.38
26376;BME280;30544;42.196;24.336;2023-03-14T09:54:05;99241.94;;;10.84;39.52
26376;BME280;30544;42.196;24.336;2023-03-14T09:56:33;99235.59;;;10.72;39.24
26376;BME280;30544;42.196;24.336;2023-03-14T09:59:03;99225.66;;;10.60;39.72
26376;BME280;30544;42.196;24.336;2023-03-14T10:01:33;99221.88;;;11.11;39.16
26376;BME280;30544;42.196;24.336;2023-03-14T10:04:04;99211.09;;;11.65;38.37
26376;BME280;30544;42.196;24.336;2023-03-14T10:06:32;99208.09;;;11.33;37.63
26376;BME280;30544;42.196;24.336;2023-03-14T10:09:02;99200.66;;;11.38;38.14
26376;BME280;30544;42.196;24.336;2023-03-14T10:11:30;99203.59;;;11.82;37.98
26376;BME280;30544;42.196;24.336;2023-03-14T10:14:06;99196.50;;;10.74;38.62
26376;BME280;30544;42.196;24.336;2023-03-14T10:16:35;99199.16;;;11.31;38.78
26376;BME280;30544;42.196;24.336;2023-03-14T10:19:04;99187.56;;;11.72;37.03
26376;BME280;30544;42.196;24.336;2023-03-14T10:21:36;99190.72;;;11.59;36.75
26376;BME280;30544;42.196;24.336;2023-03-14T10:24:10;99179.38;;;11.61;36.88
26376;BME280;30544;42.196;24.336;2023-03-14T10:26:47;99175.91;;;11.92;37.00
26376;BME280;30544;42.196;24.336;2023-03-14T10:29:15;99173.31;;;12.51;37.87
26376;BME280;30544;42.196;24.336;2023-03-14T10:31:53;99165.63;;;12.37;36.48
26376;BME280;30544;42.196;24.336;2023-03-14T10:34:25;99149.81;;;12.64;35.22
26376;BME280;30544;42.196;24.336;2023-03-14T10:36:53;99155.31;;;11.50;37.32
26376;BME280;30544;42.196;24.336;2023-03-14T10:39:32;99143.44;;;11.93;36.61
26376;BME280;30544;42.196;24.336;2023-03-14T10:42:06;99138.34;;;11.68;36.60
26376;BME280;30544;42.196;24.336;2023-03-14T10:44:39;99135.09;;;11.54;36.16
26376;BME280;30544;42.196;24.336;2023-03-14T10:47:06;99129.84;;;12.18;36.38
26376;BME280;30544;42.196;24.336;2023-03-14T10:49:40;99122.03;;;11.93;37.36
26376;BME280;30544;42.196;24.336;2023-03-14T10:52:14;99118.47;;;12.47;36.00
26376;BME280;30544;42.196;24.336;2023-03-14T10:54:47;99107.81;;;12.39;36.78
26376;BME280;30544;42.196;24.336;2023-03-14T10:57:14;99099.09;;;12.57;36.89
26376;BME280;30544;42.196;24.336;2023-03-14T10:59:42;99099.97;;;12.09;36.96
26376;BME280;30544;42.196;24.336;2023-03-14T11:02:26;99078.47;;;12.85;36.92
26376;BME280;30544;42.196;24.336;2023-03-14T11:05:04;99084.34;;;12.02;37.16
26376;BME280;30544;42.196;24.336;2023-03-14T11:07:37;99071.22;;;11.98;37.90
26376;BME280;30544;42.196;24.336;2023-03-14T11:10:14;99060.59;;;12.44;36.58
26376;BME280;30544;42.196;24.336;2023-03-14T11:12:52;99039.91;;;12.99;36.40
26376;BME280;30544;42.196;24.336;2023-03-14T11:15:27;99040.97;;;12.28;37.81
26376;BME280;30544;42.196;24.336;2023-03-14T11:18:16;99033.09;;;12.20;37.90
26376;BME280;30544;42.196;24.336;2023-03-14T11:20:52;99008.63;;;12.86;36.33
26376;BME280;30544;42.196;24.336;2023-03-14T11:23:23;99018.50;;;12.35;37.07
26376;BME280;30544;42.196;24.336;2023-03-14T11:25:56;98999.84;;;13.05;37.00
26376;BME280;30544;42.196;24.336;2023-03-14T11:28:29;98982.06;;;13.11;36.08
26376;BME280;30544;42.196;24.336;2023-03-14T11:31:04;98976.19;;;13.07;36.73
26376;BME280;30544;42.196;24.336;2023-03-14T11:33:38;98974.41;;;13.33;36.66
26376;BME280;30544;42.196;24.336;2023-03-14T11:36:07;98963.41;;;13.64;37.76
26376;BME280;30544;42.196;24.336;2023-03-14T11:38:38;98958.31;;;13.50;36.40
26376;BME280;30544;42.196;24.336;2023-03-14T11:41:12;98954.69;;;13.45;36.45
26376;BME280;30544;42.196;24.336;2023-03-14T11:43:41;98936.69;;;13.78;36.90
26376;BME280;30544;42.196;24.336;2023-03-14T11:46:11;98938.09;;;13.13;36.95
26376;BME280;30544;42.196;24.336;2023-03-14T11:48:43;98938.16;;;13.23;36.81
26376;BME280;30544;42.196;24.336;2023-03-14T11:51:18;98930.84;;;14.05;35.57
26376;BME280;30544;42.196;24.336;2023-03-14T11:53:51;98921.38;;;14.01;35.55
26376;BME280;30544;42.196;24.336;2023-03-14T11:56:27;98909.66;;;13.99;36.01
26376;BME280;30544;42.196;24.336;2023-03-14T11:58:58;98914.16;;;13.17;37.30
26376;BME280;30544;42.196;24.336;2023-03-14T12:04:19;98900.16;;;13.69;37.50
26376;BME280;30544;42.196;24.336;2023-03-14T12:06:49;98892.09;;;13.88;36.56
26376;BME280;30544;42.196;24.336;2023-03-14T12:09:18;98885.34;;;13.48;37.35
26376;BME280;30544;42.196;24.336;2023-03-14T12:11:50;98878.97;;;13.89;35.87
26376;BME280;30544;42.196;24.336;2023-03-14T12:14:24;98873.69;;;14.02;35.13
26376;BME280;30544;42.196;24.336;2023-03-14T12:16:54;98871.44;;;13.74;35.56
26376;BME280;30544;42.196;24.336;2023-03-14T12:19:32;98861.44;;;14.03;34.70
26376;BME280;30544;42.196;24.336;2023-03-14T12:22:08;98868.66;;;13.74;35.12
26376;BME280;30544;42.196;24.336;2023-03-14T12:24:45;98858.91;;;13.61;34.47
26376;BME280;30544;42.196;24.336;2023-03-14T12:30:32;98858.34;;;14.25;34.70
26376;BME280;30544;42.196;24.336;2023-03-14T12:33:21;98847.50;;;14.03;34.49
26376;BME280;30544;42.196;24.336;2023-03-14T12:35:57;98843.28;;;13.70;34.97
26376;BME280;30544;42.196;24.336;2023-03-14T12:38:29;98848.03;;;14.36;34.31
26376;BME280;30544;42.196;24.336;2023-03-14T12:41:02;98838.28;;;14.33;34.15
26376;BME280;30544;42.196;24.336;2023-03-14T12:43:34;98834.59;;;14.43;34.58
26376;BME280;30544;42.196;24.336;2023-03-14T12:46:24;98836.03;;;14.20;34.19
26376;BME280;30544;42.196;24.336;2023-03-14T12:48:55;98834.69;;;13.97;34.99
26376;BME280;30544;42.196;24.336;2023-03-14T12:51:29;98822.94;;;14.31;34.98
26376;BME280;30544;42.196;24.336;2023-03-14T12:54:09;98825.94;;;14.70;34.68
26376;BME280;30544;42.196;24.336;2023-03-14T12:57:03;98821.28;;;14.45;34.36
26376;BME280;30544;42.196;24.336;2023-03-14T12:59:34;98811.22;;;14.34;34.75
26376;BME280;30544;42.196;24.336;2023-03-14T13:02:13;98802.81;;;14.39;34.66
26376;BME280;30544;42.196;24.336;2023-03-14T13:04:46;98802.72;;;14.85;34.18
26376;BME280;30544;42.196;24.336;2023-03-14T13:07:31;98800.91;;;15.14;34.71
26376;BME280;30544;42.196;24.336;2023-03-14T13:10:13;98803.22;;;14.92;34.01
26376;BME280;30544;42.196;24.336;2023-03-14T13:12:47;98796.41;;;14.43;34.60
26376;BME280;30544;42.196;24.336;2023-03-14T13:15:23;98795.31;;;14.24;34.67
26376;BME280;30544;42.196;24.336;2023-03-14T13:17:51;98788.06;;;14.49;34.35